sensor_id;sensor_type;location;lat;lon;timestamp;temperature;humidity
67817;DHT22;54614;47.576;7.524;2023-02-11T00:01:52;22.40;44.10
67817;DHT22;54614;47.576;7.524;2023-02-11T00:04:18;22.30;44.20
67817;DHT22;54614;47.576;7.524;2023-02-11T00:06:44;22.30;44.20
67817;DHT22;54614;47.576;7.524;2023-02-11T00:09:10;22.30;44.90
67817;DHT22;54614;47.576;7.524;2023-02-11T00:11:35;22.30;44.40
67817;DHT22;54614;47.576;7.524;2023-02-11T00:14:03;22.30;44.40
67817;DHT22;54614;47.576;7.524;2023-02-11T00:16:32;22.30;44.30
67817;DHT22;54614;47.576;7.524;2023-02-11T00:19:01;22.30;44.10
67817;DHT22;54614;47.576;7.524;2023-02-11T00:21:30;22.30;44.20
67817;DHT22;54614;47.576;7.524;2023-02-11T00:23:57;22.30;44.20
67817;DHT22;54614;47.576;7.524;2023-02-11T00:26:27;22.30;44.20
67817;DHT22;54614;47.576;7.524;2023-02-11T00:28:58;22.20;44.10
67817;DHT22;54614;47.576;7.524;2023-02-11T00:31:25;22.30;44.20
67817;DHT22;54614;47.576;7.524;2023-02-11T00:33:51;22.20;44.10
67817;DHT22;54614;47.576;7.524;2023-02-11T00:36:21;22.20;44.20
67817;DHT22;54614;47.576;7.524;2023-02-11T00:38:49;22.20;44.50
67817;DHT22;54614;47.576;7.524;2023-02-11T00:41:17;22.20;44.60
67817;DHT22;54614;47.576;7.524;2023-02-11T00:43:43;22.10;44.60
67817;DHT22;54614;47.576;7.524;2023-02-11T00:48:36;22.10;44.20
67817;DHT22;54614;47.576;7.524;2023-02-11T00:51:02;22.10;44.80
67817;DHT22;54614;47.576;7.524;2023-02-11T00:53:29;22.10;44.80
67817;DHT22;54614;47.576;7.524;2023-02-11T00:55:56;22.10;44.70
67817;DHT22;54614;47.576;7.524;2023-02-11T00:58:22;22.10;44.80
67817;DHT22;54614;47.576;7.524;2023-02-11T01:00:48;22.10;44.70
67817;DHT22;54614;47.576;7.524;2023-02-11T01:03:14;22.10;44.80
67817;DHT22;54614;47.576;7.524;2023-02-11T01:05:40;22.10;44.80
67817;DHT22;54614;47.576;7.524;2023-02-11T01:08:06;22.10;44.80
67817;DHT22;54614;47.576;7.524;2023-02-11T01:10:31;22.10;44.80
67817;DHT22;54614;47.576;7.524;2023-02-11T01:12:57;22.10;44.90
67817;DHT22;54614;47.576;7.524;2023-02-11T01:15:23;22.10;45.50
67817;DHT22;54614;47.576;7.524;2023-02-11T01:17:49;22.00;44.90
67817;DHT22;54614;47.576;7.524;2023-02-11T01:20:21;22.10;44.90
67817;DHT22;54614;47.576;7.524;2023-02-11T01:22:49;22.10;45.00
67817;DHT22;54614;47.576;7.524;2023-02-11T01:25:15;22.00;44.90
67817;DHT22;54614;47.576;7.524;2023-02-11T01:27:41;22.00;44.90
67817;DHT22;54614;47.576;7.524;2023-02-11T01:30:08;22.00;45.00
67817;DHT22;54614;47.576;7.524;2023-02-11T01:32:36;22.00;45.00
67817;DHT22;54614;47.576;7.524;2023-02-11T01:35:02;22.00;45.00
67817;DHT22;54614;47.576;7.524;2023-02-11T01:37:28;22.00;45.00
67817;DHT22;54614;47.576;7.524;2023-02-11T01:39:56;22.00;45.00
67817;DHT22;54614;47.576;7.524;2023-02-11T01:42:22;22.00;45.00
67817;DHT22;54614;47.576;7.524;2023-02-11T01:44:50;22.00;45.10
67817;DHT22;54614;47.576;7.524;2023-02-11T01:47:19;22.00;45.10
67817;DHT22;54614;47.576;7.524;2023-02-11T01:49:51;22.00;45.20
67817;DHT22;54614;47.576;7.524;2023-02-11T01:52:25;22.00;45.20
67817;DHT22;54614;47.576;7.524;2023-02-11T01:55:01;21.90;45.20
67817;DHT22;54614;47.576;7.524;2023-02-11T01:58:01;21.90;45.10
67817;DHT22;54614;47.576;7.524;2023-02-11T02:00:34;21.90;45.10
67817;DHT22;54614;47.576;7.524;2023-02-11T02:03:13;21.90;45.20
67817;DHT22;54614;47.576;7.524;2023-02-11T02:11:06;21.90;45.20
67817;DHT22;54614;47.576;7.524;2023-02-11T02:13:33;21.90;45.20
67817;DHT22;54614;47.576;7.524;2023-02-11T02:16:02;21.90;45.20
67817;DHT22;54614;47.576;7.524;2023-02-11T02:22:05;21.90;45.30
67817;DHT22;54614;47.576;7.524;2023-02-11T02:25:35;21.90;45.30
67817;DHT22;54614;47.576;7.524;2023-02-11T02:34:18;21.80;45.20
67817;DHT22;54614;47.576;7.524;2023-02-11T02:37:03;21.80;45.90
67817;DHT22;54614;47.576;7.524;2023-02-11T02:39:35;21.80;45.30
67817;DHT22;54614;47.576;7.524;2023-02-11T02:42:02;21.80;45.30
67817;DHT22;54614;47.576;7.524;2023-02-11T02:44:30;21.80;45.30
67817;DHT22;54614;47.576;7.524;2023-02-11T02:46:56;21.80;45.30
67817;DHT22;54614;47.576;7.524;2023-02-11T02:49:22;21.80;45.30
67817;DHT22;54614;47.576;7.524;2023-02-11T02:51:57;21.80;45.40
67817;DHT22;54614;47.576;7.524;2023-02-11T02:57:49;21.70;45.20
67817;DHT22;54614;47.576;7.524;2023-02-11T03:06:51;21.70;45.20
67817;DHT22;54614;47.576;7.524;2023-02-11T03:11:56;21.70;45.30
67817;DHT22;54614;47.576;7.524;2023-02-11T03:14:25;21.70;45.20
67817;DHT22;54614;47.576;7.524;2023-02-11T03:16:56;21.70;45.30
67817;DHT22;54614;47.576;7.524;2023-02-11T03:19:28;21.70;45.30
67817;DHT22;54614;47.576;7.524;2023-02-11T03:21:58;21.70;45.30
67817;DHT22;54614;47.576;7.524;2023-02-11T03:24:33;21.70;45.30
67817;DHT22;54614;47.576;7.524;2023-02-11T03:27:18;21.70;45.30
67817;DHT22;54614;47.576;7.524;2023-02-11T03:30:25;21.70;45.30
67817;DHT22;54614;47.576;7.524;2023-02-11T03:33:36;21.70;45.30
67817;DHT22;54614;47.576;7.524;2023-02-11T03:36:17;21.60;45.30
67817;DHT22;54614;47.576;7.524;2023-02-11T03:38:50;21.60;45.20
67817;DHT22;54614;47.576;7.524;2023-02-11T03:41:22;21.60;45.20
67817;DHT22;54614;47.576;7.524;2023-02-11T03:43:52;21.60;45.30
67817;DHT22;54614;47.576;7.524;2023-02-11T03:46:26;21.60;45.20
67817;DHT22;54614;47.576;7.524;2023-02-11T03:49:01;21.60;45.30
67817;DHT22;54614;47.576;7.524;2023-02-11T03:51:32;21.60;45.90
67817;DHT22;54614;47.576;7.524;2023-02-11T03:54:01;21.60;45.30
67817;DHT22;54614;47.576;7.524;2023-02-11T03:56:36;21.60;45.30
67817;DHT22;54614;47.576;7.524;2023-02-11T03:59:10;21.50;45.20
67817;DHT22;54614;47.576;7.524;2023-02-11T04:01:36;21.60;45.30
67817;DHT22;54614;47.576;7.524;2023-02-11T04:04:02;21.60;45.30
67817;DHT22;54614;47.576;7.524;2023-02-11T04:06:28;21.50;45.20
67817;DHT22;54614;47.576;7.524;2023-02-11T04:08:53;21.60;45.30
67817;DHT22;54614;47.576;7.524;2023-02-11T04:11:19;21.60;45.30
67817;DHT22;54614;47.576;7.524;2023-02-11T04:13:45;21.60;45.30
67817;DHT22;54614;47.576;7.524;2023-02-11T04:16:11;21.50;45.20
67817;DHT22;54614;47.576;7.524;2023-02-11T04:18:37;21.60;45.30
67817;DHT22;54614;47.576;7.524;2023-02-11T04:21:02;21.50;45.20
67817;DHT22;54614;47.576;7.524;2023-02-11T04:23:28;21.50;45.20
67817;DHT22;54614;47.576;7.524;2023-02-11T04:25:54;21.50;45.20
67817;DHT22;54614;47.576;7.524;2023-02-11T04:28:20;21.50;45.20
67817;DHT22;54614;47.576;7.524;2023-02-11T04:30:47;21.50;45.20
67817;DHT22;54614;47.576;7.524;2023-02-11T04:33:14;21.50;45.20
67817;DHT22;54614;47.576;7.524;2023-02-11T04:35:39;21.50;45.30
67817;DHT22;54614;47.576;7.524;2023-02-11T04:38:05;21.50;45.30
67817;DHT22;54614;47.576;7.524;2023-02-11T04:40:31;21.50;45.30
67817;DHT22;54614;47.576;7.524;2023-02-11T04:42:57;21.50;45.20
67817;DHT22;54614;47.576;7.524;2023-02-11T04:45:23;21.50;45.20
67817;DHT22;54614;47.576;7.524;2023-02-11T04:47:49;21.50;45.20
67817;DHT22;54614;47.576;7.524;2023-02-11T04:50:14;21.40;45.20
67817;DHT22;54614;47.576;7.524;2023-02-11T04:52:40;21.50;45.40
67817;DHT22;54614;47.576;7.524;2023-02-11T04:55:06;21.40;45.20
67817;DHT22;54614;47.576;7.524;2023-02-11T04:57:32;21.40;45.20
67817;DHT22;54614;47.576;7.524;2023-02-11T04:59:58;21.40;45.20
67817;DHT22;54614;47.576;7.524;2023-02-11T05:02:24;21.40;45.20
67817;DHT22;54614;47.576;7.524;2023-02-11T05:04:50;21.40;45.20
67817;DHT22;54614;47.576;7.524;2023-02-11T05:07:15;21.40;45.20
67817;DHT22;54614;47.576;7.524;2023-02-11T05:09:41;21.40;45.20
67817;DHT22;54614;47.576;7.524;2023-02-11T05:12:07;21.40;45.20
67817;DHT22;54614;47.576;7.524;2023-02-11T05:14:33;21.40;45.20
67817;DHT22;54614;47.576;7.524;2023-02-11T05:16:59;21.40;45.20
67817;DHT22;54614;47.576;7.524;2023-02-11T05:19:25;21.40;45.20
67817;DHT22;54614;47.576;7.524;2023-02-11T05:21:51;21.40;47.40
67817;DHT22;54614;47.576;7.524;2023-02-11T05:24:18;21.50;47.40
67817;DHT22;54614;47.576;7.524;2023-02-11T05:26:45;21.40;47.00
67817;DHT22;54614;47.576;7.524;2023-02-11T05:29:10;21.40;46.80
67817;DHT22;54614;47.576;7.524;2023-02-11T05:31:36;21.40;46.30
67817;DHT22;54614;47.576;7.524;2023-02-11T05:34:02;21.40;46.00
67817;DHT22;54614;47.576;7.524;2023-02-11T05:36:28;21.40;45.80
67817;DHT22;54614;47.576;7.524;2023-02-11T05:38:54;21.40;46.00
67817;DHT22;54614;47.576;7.524;2023-02-11T05:41:20;21.40;45.70
67817;DHT22;54614;47.576;7.524;2023-02-11T05:43:49;21.40;45.60
67817;DHT22;54614;47.576;7.524;2023-02-11T05:46:16;21.40;45.50
67817;DHT22;54614;47.576;7.524;2023-02-11T05:48:42;21.40;45.50
67817;DHT22;54614;47.576;7.524;2023-02-11T05:51:08;21.40;45.50
67817;DHT22;54614;47.576;7.524;2023-02-11T05:53:34;21.30;45.50
67817;DHT22;54614;47.576;7.524;2023-02-11T05:56:01;21.40;45.50
67817;DHT22;54614;47.576;7.524;2023-02-11T05:58:27;21.40;45.60
67817;DHT22;54614;47.576;7.524;2023-02-11T06:00:53;21.40;45.70
67817;DHT22;54614;47.576;7.524;2023-02-11T06:03:19;21.40;45.40
67817;DHT22;54614;47.576;7.524;2023-02-11T06:05:45;21.40;45.40
67817;DHT22;54614;47.576;7.524;2023-02-11T06:08:11;21.30;45.40
67817;DHT22;54614;47.576;7.524;2023-02-11T06:10:37;21.40;45.40
67817;DHT22;54614;47.576;7.524;2023-02-11T06:13:03;21.30;45.50
67817;DHT22;54614;47.576;7.524;2023-02-11T06:15:29;21.30;46.10
67817;DHT22;54614;47.576;7.524;2023-02-11T06:17:55;21.30;45.30
67817;DHT22;54614;47.576;7.524;2023-02-11T06:20:21;21.30;45.40
67817;DHT22;54614;47.576;7.524;2023-02-11T06:22:47;21.30;45.30
67817;DHT22;54614;47.576;7.524;2023-02-11T06:25:12;21.30;45.30
67817;DHT22;54614;47.576;7.524;2023-02-11T06:27:39;21.30;45.20
67817;DHT22;54614;47.576;7.524;2023-02-11T06:30:06;21.30;45.30
67817;DHT22;54614;47.576;7.524;2023-02-11T06:32:32;21.30;45.30
67817;DHT22;54614;47.576;7.524;2023-02-11T06:34:59;21.30;45.30
67817;DHT22;54614;47.576;7.524;2023-02-11T06:37:28;21.30;45.30
67817;DHT22;54614;47.576;7.524;2023-02-11T06:39:53;21.30;45.30
67817;DHT22;54614;47.576;7.524;2023-02-11T06:42:19;21.20;45.20
67817;DHT22;54614;47.576;7.524;2023-02-11T06:44:45;21.20;45.20
67817;DHT22;54614;47.576;7.524;2023-02-11T06:47:12;21.20;45.20
67817;DHT22;54614;47.576;7.524;2023-02-11T06:49:38;21.30;45.30
67817;DHT22;54614;47.576;7.524;2023-02-11T06:52:04;21.20;45.40
67817;DHT22;54614;47.576;7.524;2023-02-11T06:54:30;21.30;45.50
67817;DHT22;54614;47.576;7.524;2023-02-11T06:56:55;21.30;45.40
67817;DHT22;54614;47.576;7.524;2023-02-11T06:59:21;21.30;45.30
67817;DHT22;54614;47.576;7.524;2023-02-11T07:01:47;21.30;45.30
67817;DHT22;54614;47.576;7.524;2023-02-11T07:04:13;21.20;45.30
67817;DHT22;54614;47.576;7.524;2023-02-11T07:06:40;21.20;45.30
67817;DHT22;54614;47.576;7.524;2023-02-11T07:09:06;21.20;45.30
67817;DHT22;54614;47.576;7.524;2023-02-11T07:11:33;21.20;45.30
67817;DHT22;54614;47.576;7.524;2023-02-11T07:14:05;21.30;46.10
67817;DHT22;54614;47.576;7.524;2023-02-11T07:16:35;21.30;46.10
67817;DHT22;54614;47.576;7.524;2023-02-11T07:19:02;21.30;45.90
67817;DHT22;54614;47.576;7.524;2023-02-11T07:21:28;21.30;45.70
67817;DHT22;54614;47.576;7.524;2023-02-11T07:23:54;21.30;45.70
67817;DHT22;54614;47.576;7.524;2023-02-11T07:26:22;21.30;45.70
67817;DHT22;54614;47.576;7.524;2023-02-11T07:28:51;21.30;45.80
67817;DHT22;54614;47.576;7.524;2023-02-11T07:31:23;21.30;45.70
67817;DHT22;54614;47.576;7.524;2023-02-11T07:33:56;21.30;46.10
67817;DHT22;54614;47.576;7.524;2023-02-11T07:36:24;21.30;46.50
67817;DHT22;54614;47.576;7.524;2023-02-11T07:38:51;21.20;47.20
67817;DHT22;54614;47.576;7.524;2023-02-11T07:41:19;21.20;47.00
67817;DHT22;54614;47.576;7.524;2023-02-11T07:43:47;21.20;47.30
67817;DHT22;54614;47.576;7.524;2023-02-11T07:46:19;21.30;46.90
67817;DHT22;54614;47.576;7.524;2023-02-11T07:48:46;21.30;46.90
67817;DHT22;54614;47.576;7.524;2023-02-11T07:51:15;21.30;46.70
67817;DHT22;54614;47.576;7.524;2023-02-11T07:53:45;21.40;46.60
67817;DHT22;54614;47.576;7.524;2023-02-11T07:56:13;21.40;46.80
67817;DHT22;54614;47.576;7.524;2023-02-11T07:58:40;21.40;46.70
67817;DHT22;54614;47.576;7.524;2023-02-11T08:01:10;21.40;46.90
67817;DHT22;54614;47.576;7.524;2023-02-11T08:03:39;21.50;47.00
67817;DHT22;54614;47.576;7.524;2023-02-11T08:06:12;21.40;46.70
67817;DHT22;54614;47.576;7.524;2023-02-11T08:08:40;21.50;46.50
67817;DHT22;54614;47.576;7.524;2023-02-11T08:11:13;21.50;46.50
67817;DHT22;54614;47.576;7.524;2023-02-11T08:13:50;21.60;46.30
67817;DHT22;54614;47.576;7.524;2023-02-11T08:16:45;21.50;47.30
67817;DHT22;54614;47.576;7.524;2023-02-11T08:19:14;21.40;47.60
67817;DHT22;54614;47.576;7.524;2023-02-11T08:21:41;21.30;47.90
67817;DHT22;54614;47.576;7.524;2023-02-11T08:24:08;21.20;48.00
67817;DHT22;54614;47.576;7.524;2023-02-11T08:26:34;21.10;48.30
67817;DHT22;54614;47.576;7.524;2023-02-11T08:29:04;21.10;48.20
67817;DHT22;54614;47.576;7.524;2023-02-11T08:31:39;21.10;48.20
67817;DHT22;54614;47.576;7.524;2023-02-11T08:34:07;21.10;48.30
67817;DHT22;54614;47.576;7.524;2023-02-11T08:36:35;21.10;48.10
67817;DHT22;54614;47.576;7.524;2023-02-11T08:39:05;21.20;47.60
67817;DHT22;54614;47.576;7.524;2023-02-11T08:41:34;21.30;47.40
67817;DHT22;54614;47.576;7.524;2023-02-11T08:44:00;21.40;47.10
67817;DHT22;54614;47.576;7.524;2023-02-11T08:46:26;21.40;46.80
67817;DHT22;54614;47.576;7.524;2023-02-11T08:48:52;21.50;46.80
67817;DHT22;54614;47.576;7.524;2023-02-11T08:51:21;21.50;46.90
67817;DHT22;54614;47.576;7.524;2023-02-11T08:53:50;21.50;46.70
67817;DHT22;54614;47.576;7.524;2023-02-11T08:56:18;21.50;46.70
67817;DHT22;54614;47.576;7.524;2023-02-11T08:58:46;21.60;46.80
67817;DHT22;54614;47.576;7.524;2023-02-11T09:01:18;21.60;46.60
67817;DHT22;54614;47.576;7.524;2023-02-11T09:03:46;21.60;46.50
67817;DHT22;54614;47.576;7.524;2023-02-11T09:06:15;21.50;46.50
67817;DHT22;54614;47.576;7.524;2023-02-11T09:08:44;21.60;46.50
67817;DHT22;54614;47.576;7.524;2023-02-11T09:11:14;21.60;47.20
67817;DHT22;54614;47.576;7.524;2023-02-11T09:13:42;21.60;46.50
67817;DHT22;54614;47.576;7.524;2023-02-11T09:16:16;21.60;46.50
67817;DHT22;54614;47.576;7.524;2023-02-11T09:18:43;21.60;46.50
67817;DHT22;54614;47.576;7.524;2023-02-11T09:21:10;21.60;46.40
67817;DHT22;54614;47.576;7.524;2023-02-11T09:23:37;21.60;46.40
67817;DHT22;54614;47.576;7.524;2023-02-11T09:26:07;21.60;46.50
67817;DHT22;54614;47.576;7.524;2023-02-11T09:28:36;21.70;46.60
67817;DHT22;54614;47.576;7.524;2023-02-11T09:31:06;21.60;47.20
67817;DHT22;54614;47.576;7.524;2023-02-11T09:33:35;21.60;47.10
67817;DHT22;54614;47.576;7.524;2023-02-11T09:36:04;21.70;46.90
67817;DHT22;54614;47.576;7.524;2023-02-11T09:38:31;21.70;46.50
67817;DHT22;54614;47.576;7.524;2023-02-11T09:40:58;21.70;46.90
67817;DHT22;54614;47.576;7.524;2023-02-11T09:43:32;21.80;46.60
67817;DHT22;54614;47.576;7.524;2023-02-11T09:46:03;21.80;46.30
67817;DHT22;54614;47.576;7.524;2023-02-11T09:48:37;21.80;46.20
67817;DHT22;54614;47.576;7.524;2023-02-11T09:51:15;21.80;46.20
67817;DHT22;54614;47.576;7.524;2023-02-11T09:53:51;21.80;46.20
67817;DHT22;54614;47.576;7.524;2023-02-11T09:56:24;21.80;46.10
67817;DHT22;54614;47.576;7.524;2023-02-11T09:58:50;21.90;45.90
67817;DHT22;54614;47.576;7.524;2023-02-11T10:04:13;22.00;45.50
67817;DHT22;54614;47.576;7.524;2023-02-11T10:06:55;22.00;46.20
67817;DHT22;54614;47.576;7.524;2023-02-11T10:15:41;22.00;48.70
67817;DHT22;54614;47.576;7.524;2023-02-11T10:24:16;22.00;47.30
67817;DHT22;54614;47.576;7.524;2023-02-11T10:26:44;22.00;47.10
67817;DHT22;54614;47.576;7.524;2023-02-11T10:32:16;22.00;47.00
67817;DHT22;54614;47.576;7.524;2023-02-11T10:34:55;22.00;46.90
67817;DHT22;54614;47.576;7.524;2023-02-11T10:37:24;22.00;46.90
67817;DHT22;54614;47.576;7.524;2023-02-11T10:39:50;22.00;46.80
67817;DHT22;54614;47.576;7.524;2023-02-11T10:42:16;22.00;46.90
67817;DHT22;54614;47.576;7.524;2023-02-11T10:44:58;22.00;46.90
67817;DHT22;54614;47.576;7.524;2023-02-11T10:47:32;22.00;47.00
67817;DHT22;54614;47.576;7.524;2023-02-11T10:50:24;22.00;47.10
67817;DHT22;54614;47.576;7.524;2023-02-11T10:52:52;22.10;47.10
67817;DHT22;54614;47.576;7.524;2023-02-11T10:55:36;22.10;47.00
67817;DHT22;54614;47.576;7.524;2023-02-11T10:58:02;22.20;46.90
67817;DHT22;54614;47.576;7.524;2023-02-11T11:00:34;22.10;46.90
67817;DHT22;54614;47.576;7.524;2023-02-11T11:03:23;22.20;47.00
67817;DHT22;54614;47.576;7.524;2023-02-11T11:06:10;22.20;46.70
67817;DHT22;54614;47.576;7.524;2023-02-11T11:08:48;22.20;46.60
67817;DHT22;54614;47.576;7.524;2023-02-11T11:11:21;22.20;46.30
67817;DHT22;54614;47.576;7.524;2023-02-11T11:14:01;22.20;46.40
67817;DHT22;54614;47.576;7.524;2023-02-11T11:16:34;22.20;46.40
67817;DHT22;54614;47.576;7.524;2023-02-11T11:21:43;22.30;46.30
67817;DHT22;54614;47.576;7.524;2023-02-11T11:24:19;22.30;46.30
67817;DHT22;54614;47.576;7.524;2023-02-11T11:26:59;22.30;46.50
67817;DHT22;54614;47.576;7.524;2023-02-11T11:29:50;22.30;46.60
67817;DHT22;54614;47.576;7.524;2023-02-11T11:32:25;22.30;46.80
67817;DHT22;54614;47.576;7.524;2023-02-11T11:34:58;22.30;46.60
67817;DHT22;54614;47.576;7.524;2023-02-11T11:37:30;22.40;46.60
67817;DHT22;54614;47.576;7.524;2023-02-11T11:40:09;22.40;46.60
67817;DHT22;54614;47.576;7.524;2023-02-11T11:45:29;22.40;46.30
67817;DHT22;54614;47.576;7.524;2023-02-11T11:47:59;22.50;46.10
67817;DHT22;54614;47.576;7.524;2023-02-11T11:50:41;22.60;46.00
67817;DHT22;54614;47.576;7.524;2023-02-11T11:53:14;22.60;45.70
67817;DHT22;54614;47.576;7.524;2023-02-11T11:55:59;22.70;45.50
67817;DHT22;54614;47.576;7.524;2023-02-11T11:58:28;22.70;45.60
67817;DHT22;54614;47.576;7.524;2023-02-11T12:24:18;22.70;48.00
67817;DHT22;54614;47.576;7.524;2023-02-11T12:28:06;22.70;48.40
67817;DHT22;54614;47.576;7.524;2023-02-11T12:31:10;22.70;48.20
67817;DHT22;54614;47.576;7.524;2023-02-11T12:45:37;22.80;47.40
67817;DHT22;54614;47.576;7.524;2023-02-11T12:48:20;22.80;47.80
67817;DHT22;54614;47.576;7.524;2023-02-11T12:57:19;22.80;46.80
67817;DHT22;54614;47.576;7.524;2023-02-11T13:02:40;22.80;45.80
67817;DHT22;54614;47.576;7.524;2023-02-11T13:08:14;22.80;45.80
67817;DHT22;54614;47.576;7.524;2023-02-11T13:10:47;22.80;46.00
67817;DHT22;54614;47.576;7.524;2023-02-11T13:13:21;22.70;46.10
67817;DHT22;54614;47.576;7.524;2023-02-11T13:15:55;22.70;45.90
67817;DHT22;54614;47.576;7.524;2023-02-11T13:24:05;22.80;45.80
67817;DHT22;54614;47.576;7.524;2023-02-11T13:31:55;22.70;45.90
67817;DHT22;54614;47.576;7.524;2023-02-11T13:37:24;22.70;46.00
67817;DHT22;54614;47.576;7.524;2023-02-11T13:40:04;22.70;46.10
67817;DHT22;54614;47.576;7.524;2023-02-11T13:42:51;22.70;46.00
67817;DHT22;54614;47.576;7.524;2023-02-11T13:45:29;22.70;45.90
67817;DHT22;54614;47.576;7.524;2023-02-11T13:47:59;22.80;45.80
67817;DHT22;54614;47.576;7.524;2023-02-11T13:50:33;22.80;45.80
67817;DHT22;54614;47.576;7.524;2023-02-11T13:53:05;22.80;46.40
67817;DHT22;54614;47.576;7.524;2023-02-11T13:55:34;22.80;45.80
67817;DHT22;54614;47.576;7.524;2023-02-11T14:11:51;22.80;45.80
67817;DHT22;54614;47.576;7.524;2023-02-11T14:19:49;22.90;45.10
67817;DHT22;54614;47.576;7.524;2023-02-11T14:22:38;23.00;45.10
67817;DHT22;54614;47.576;7.524;2023-02-11T14:25:26;22.90;45.00
67817;DHT22;54614;47.576;7.524;2023-02-11T14:31:01;22.90;44.80
67817;DHT22;54614;47.576;7.524;2023-02-11T14:42:00;22.90;45.00
67817;DHT22;54614;47.576;7.524;2023-02-11T14:44:30;23.00;44.40
67817;DHT22;54614;47.576;7.524;2023-02-11T14:46:58;22.90;44.80
67817;DHT22;54614;47.576;7.524;2023-02-11T14:49:30;22.90;44.80
67817;DHT22;54614;47.576;7.524;2023-02-11T14:52:08;22.90;44.80
67817;DHT22;54614;47.576;7.524;2023-02-11T14:54:43;22.90;45.00
67817;DHT22;54614;47.576;7.524;2023-02-11T14:57:16;22.80;44.70
67817;DHT22;54614;47.576;7.524;2023-02-11T14:59:59;22.80;44.80
67817;DHT22;54614;47.576;7.524;2023-02-11T15:02:35;22.80;44.90
67817;DHT22;54614;47.576;7.524;2023-02-11T15:05:25;22.80;44.70
67817;DHT22;54614;47.576;7.524;2023-02-11T15:08:04;22.80;44.70
67817;DHT22;54614;47.576;7.524;2023-02-11T15:10:34;22.80;44.60
67817;DHT22;54614;47.576;7.524;2023-02-11T15:13:05;22.80;44.80
67817;DHT22;54614;47.576;7.524;2023-02-11T15:15:33;22.80;44.70
67817;DHT22;54614;47.576;7.524;2023-02-11T15:18:02;22.80;44.70
67817;DHT22;54614;47.576;7.524;2023-02-11T15:20:31;22.70;45.50
67817;DHT22;54614;47.576;7.524;2023-02-11T15:23:04;22.60;45.00
67817;DHT22;54614;47.576;7.524;2023-02-11T15:25:45;22.60;44.90
67817;DHT22;54614;47.576;7.524;2023-02-11T15:28:33;22.60;44.80
67817;DHT22;54614;47.576;7.524;2023-02-11T15:31:05;22.70;44.90
67817;DHT22;54614;47.576;7.524;2023-02-11T15:33:39;22.60;44.90
67817;DHT22;54614;47.576;7.524;2023-02-11T15:36:05;22.70;45.30
67817;DHT22;54614;47.576;7.524;2023-02-11T15:38:31;22.60;45.30
67817;DHT22;54614;47.576;7.524;2023-02-11T15:40:59;22.70;45.40
67817;DHT22;54614;47.576;7.524;2023-02-11T15:43:47;22.60;45.40
67817;DHT22;54614;47.576;7.524;2023-02-11T15:46:18;22.70;45.60
67817;DHT22;54614;47.576;7.524;2023-02-11T15:48:50;22.60;45.50
67817;DHT22;54614;47.576;7.524;2023-02-11T15:51:21;22.60;45.70
67817;DHT22;54614;47.576;7.524;2023-02-11T15:53:55;22.60;46.00
67817;DHT22;54614;47.576;7.524;2023-02-11T15:56:26;22.50;46.30
67817;DHT22;54614;47.576;7.524;2023-02-11T15:58:56;22.40;46.30
67817;DHT22;54614;47.576;7.524;2023-02-11T16:01:31;22.40;46.30
67817;DHT22;54614;47.576;7.524;2023-02-11T16:03:59;22.50;46.10
67817;DHT22;54614;47.576;7.524;2023-02-11T16:06:43;22.60;46.10
67817;DHT22;54614;47.576;7.524;2023-02-11T16:19:47;22.30;46.80
67817;DHT22;54614;47.576;7.524;2023-02-11T16:22:19;22.30;46.80
67817;DHT22;54614;47.576;7.524;2023-02-11T16:24:50;22.30;47.20
67817;DHT22;54614;47.576;7.524;2023-02-11T16:27:39;22.30;47.30
67817;DHT22;54614;47.576;7.524;2023-02-11T16:30:22;22.30;47.30
67817;DHT22;54614;47.576;7.524;2023-02-11T16:32:52;22.30;47.40
67817;DHT22;54614;47.576;7.524;2023-02-11T16:35:19;22.30;47.40
67817;DHT22;54614;47.576;7.524;2023-02-11T16:37:45;22.30;47.60
67817;DHT22;54614;47.576;7.524;2023-02-11T16:40:11;22.30;47.60
67817;DHT22;54614;47.576;7.524;2023-02-11T16:42:38;22.30;47.70
67817;DHT22;54614;47.576;7.524;2023-02-11T16:45:05;22.20;47.40
67817;DHT22;54614;47.576;7.524;2023-02-11T16:47:31;22.20;47.30
67817;DHT22;54614;47.576;7.524;2023-02-11T16:49:59;22.20;47.40
67817;DHT22;54614;47.576;7.524;2023-02-11T16:52:27;22.20;48.00
67817;DHT22;54614;47.576;7.524;2023-02-11T16:54:55;22.20;47.50
67817;DHT22;54614;47.576;7.524;2023-02-11T16:57:24;22.20;47.60
67817;DHT22;54614;47.576;7.524;2023-02-11T16:59:51;22.20;47.60
67817;DHT22;54614;47.576;7.524;2023-02-11T17:04:54;22.30;48.00
67817;DHT22;54614;47.576;7.524;2023-02-11T17:07:23;22.40;50.30
67817;DHT22;54614;47.576;7.524;2023-02-11T17:09:48;22.50;49.10
67817;DHT22;54614;47.576;7.524;2023-02-11T17:12:16;22.60;50.00
67817;DHT22;54614;47.576;7.524;2023-02-11T17:14:42;22.70;51.50
67817;DHT22;54614;47.576;7.524;2023-02-11T17:17:09;22.70;51.90
67817;DHT22;54614;47.576;7.524;2023-02-11T17:19:35;22.80;50.40
67817;DHT22;54614;47.576;7.524;2023-02-11T17:22:01;22.80;49.80
67817;DHT22;54614;47.576;7.524;2023-02-11T17:24:27;22.90;50.90
67817;DHT22;54614;47.576;7.524;2023-02-11T17:26:54;22.90;49.80
67817;DHT22;54614;47.576;7.524;2023-02-11T17:29:22;22.90;48.50
67817;DHT22;54614;47.576;7.524;2023-02-11T17:31:50;23.00;48.00
67817;DHT22;54614;47.576;7.524;2023-02-11T17:34:17;22.90;47.60
67817;DHT22;54614;47.576;7.524;2023-02-11T17:36:44;22.90;47.10
67817;DHT22;54614;47.576;7.524;2023-02-11T17:39:11;22.90;46.90
67817;DHT22;54614;47.576;7.524;2023-02-11T17:41:37;23.00;46.80
67817;DHT22;54614;47.576;7.524;2023-02-11T17:44:05;22.90;46.60
67817;DHT22;54614;47.576;7.524;2023-02-11T17:46:33;22.90;46.60
67817;DHT22;54614;47.576;7.524;2023-02-11T17:49:00;22.90;46.50
67817;DHT22;54614;47.576;7.524;2023-02-11T17:51:28;22.90;46.40
67817;DHT22;54614;47.576;7.524;2023-02-11T17:53:58;23.00;46.20
67817;DHT22;54614;47.576;7.524;2023-02-11T17:56:31;23.00;46.10
67817;DHT22;54614;47.576;7.524;2023-02-11T17:58:59;23.00;45.90
67817;DHT22;54614;47.576;7.524;2023-02-11T18:01:30;23.10;49.90
67817;DHT22;54614;47.576;7.524;2023-02-11T18:03:58;23.20;51.90
67817;DHT22;54614;47.576;7.524;2023-02-11T18:06:25;23.30;53.10
67817;DHT22;54614;47.576;7.524;2023-02-11T18:08:51;23.30;56.30
67817;DHT22;54614;47.576;7.524;2023-02-11T18:11:17;23.30;53.00
67817;DHT22;54614;47.576;7.524;2023-02-11T18:13:43;23.40;52.80
67817;DHT22;54614;47.576;7.524;2023-02-11T18:16:10;23.40;53.30
67817;DHT22;54614;47.576;7.524;2023-02-11T18:18:43;23.50;55.60
67817;DHT22;54614;47.576;7.524;2023-02-11T18:21:16;23.60;55.10
67817;DHT22;54614;47.576;7.524;2023-02-11T18:23:44;23.70;56.00
67817;DHT22;54614;47.576;7.524;2023-02-11T18:26:11;23.70;52.40
67817;DHT22;54614;47.576;7.524;2023-02-11T18:28:38;23.70;51.20
67817;DHT22;54614;47.576;7.524;2023-02-11T18:31:06;23.70;50.00